Time;durP1;ratioP1;P1;durP2;ratioP2;P2;SDS_P1;SDS_P2;PMS_P1;PMS_P2;Temp;Humidity;BMP_temperature;BMP_pressure;BME280_temperature;BME280_humidity;BME280_pressure;Samples;Min_cycle;Max_cycle;Signal;HPM_P1;HPM_P2
2022/11/06 00:01:16;;;;;;;20.08;13.23;;;22.50;99.90;;;;;;6249342;27;89172;-67
2022/11/06 00:04:18;;;;;;;15.52;13.60;;;22.40;99.90;;;;;;6233681;28;88770;-67
2022/11/06 00:07:19;;;;;;;16.02;12.70;;;22.40;99.90;;;;;;6245350;28;89401;-66
2022/11/06 00:10:21;;;;;;;17.15;13.45;;;22.40;99.90;;;;;;6242167;28;89208;-66
2022/11/06 00:13:24;;;;;;;17.83;13.90;;;22.40;99.90;;;;;;6255584;28;89797;-66
2022/11/06 00:16:27;;;;;;;18.42;13.55;;;22.40;99.90;;;;;;6249818;28;89466;-67
2022/11/06 00:19:29;;;;;;;16.33;13.38;;;22.40;99.90;;;;;;6232732;28;89478;-67
2022/11/06 00:22:32;;;;;;;17.95;13.80;;;22.40;99.90;;;;;;6241103;28;89404;-67
2022/11/06 00:25:35;;;;;;;16.40;13.05;;;22.40;99.90;;;;;;6241033;28;89238;-67
2022/11/06 00:34:52;;;;;;;16.73;13.40;;;22.40;99.90;;;;;;6183257;28;87707;-68
2022/11/06 00:37:54;;;;;;;16.05;13.75;;;22.30;99.90;;;;;;6180977;28;89149;-67
2022/11/06 00:40:56;;;;;;;15.80;12.55;;;22.40;99.90;;;;;;6179489;28;88105;-68
2022/11/06 00:44:02;;;;;;;15.68;12.95;;;22.30;99.90;;;;;;6179944;28;89985;-68
2022/11/06 00:47:04;;;;;;;15.98;13.25;;;22.40;99.90;;;;;;6182033;28;89114;-68
2022/11/06 00:50:08;;;;;;;15.77;12.38;;;22.30;99.90;;;;;;6181177;28;90374;-68
2022/11/06 00:53:10;;;;;;;14.88;12.65;;;22.30;99.90;;;;;;6169662;28;88859;-68
2022/11/06 00:56:15;;;;;;;15.38;13.00;;;22.30;99.90;;;;;;6181315;28;89153;-67
2022/11/06 00:59:17;;;;;;;14.15;12.65;;;22.30;99.90;;;;;;6181658;28;89357;-67
2022/11/06 01:02:19;;;;;;;17.10;13.30;;;22.30;99.90;;;;;;6182019;28;88068;-67
2022/11/06 01:05:23;;;;;;;14.35;11.90;;;22.30;99.90;;;;;;6180975;28;88392;-67
2022/11/06 01:08:25;;;;;;;15.38;13.38;;;22.30;99.90;;;;;;6181680;28;89081;-67
2022/11/06 01:11:29;;;;;;;14.82;12.73;;;22.30;99.90;;;;;;6178666;28;89092;-67
2022/11/06 01:14:31;;;;;;;15.48;12.95;;;22.30;99.90;;;;;;6170550;28;90123;-67
2022/11/06 01:17:34;;;;;;;15.32;12.50;;;22.30;99.90;;;;;;6176110;28;89306;-67
2022/11/06 01:20:39;;;;;;;13.70;11.85;;;22.20;99.90;;;;;;6179765;28;88094;-68
2022/11/06 01:23:41;;;;;;;15.05;12.65;;;22.20;99.90;;;;;;6181747;28;89014;-67
2022/11/06 01:26:43;;;;;;;16.02;12.77;;;22.20;99.90;;;;;;6187868;28;89408;-67
2022/11/06 01:29:45;;;;;;;15.05;12.70;;;22.20;99.90;;;;;;6180700;28;89158;-67
2022/11/06 01:32:47;;;;;;;15.07;12.13;;;22.20;99.90;;;;;;6176948;28;89336;-67
2022/11/06 01:35:51;;;;;;;14.88;12.57;;;22.20;99.90;;;;;;6187240;28;88554;-67
2022/11/06 01:38:55;;;;;;;14.02;12.05;;;22.20;99.90;;;;;;6182552;28;89207;-67
2022/11/06 01:41:57;;;;;;;16.17;12.93;;;22.20;99.90;;;;;;6175768;28;89831;-67
2022/11/06 01:45:19;;;;;;;14.63;11.98;;;22.20;99.90;;;;;;6182155;28;90072;-67
2022/11/06 01:48:24;;;;;;;14.40;12.05;;;22.20;99.90;;;;;;6175639;28;88020;-67
2022/11/06 01:51:30;;;;;;;15.05;12.15;;;22.20;99.90;;;;;;6179720;28;89143;-67
2022/11/06 01:54:35;;;;;;;15.02;12.50;;;22.20;99.90;;;;;;6181281;28;89299;-67
2022/11/06 01:57:37;;;;;;;13.90;12.02;;;22.20;99.90;;;;;;6180501;28;89070;-68
2022/11/06 02:00:40;;;;;;;15.13;12.15;;;22.20;99.90;;;;;;6181157;28;89519;-67
2022/11/06 02:03:48;;;;;;;12.90;11.48;;;22.20;99.90;;;;;;6180763;28;89560;-67
2022/11/06 02:06:52;;;;;;;13.15;11.70;;;22.10;99.90;;;;;;6178462;28;87411;-67
2022/11/06 02:09:54;;;;;;;13.60;11.50;;;22.10;99.90;;;;;;6179775;28;89331;-67
2022/11/06 02:13:11;;;;;;;12.88;11.57;;;22.20;99.90;;;;;;6179597;28;89326;-68
2022/11/06 02:16:20;;;;;;;12.35;11.13;;;22.10;99.90;;;;;;6180306;28;88875;-67
2022/11/06 02:19:49;;;;;;;12.85;11.55;;;22.10;99.90;;;;;;6179808;28;89181;-67
2022/11/06 02:23:24;;;;;;;12.73;11.15;;;22.10;99.90;;;;;;6180463;28;89373;-67
2022/11/06 02:26:50;;;;;;;13.68;11.82;;;22.20;99.90;;;;;;6180278;28;89223;-68
2022/11/06 02:29:58;;;;;;;12.73;11.00;;;22.10;99.90;;;;;;6185089;28;88735;-67
2022/11/06 02:33:06;;;;;;;12.65;11.35;;;22.10;99.90;;;;;;6184525;28;89212;-67
2022/11/06 02:36:12;;;;;;;11.93;10.73;;;22.10;99.90;;;;;;6184759;28;88136;-67
2022/11/06 02:39:19;;;;;;;12.68;11.38;;;22.10;99.90;;;;;;6184831;28;89392;-67
2022/11/06 02:42:23;;;;;;;11.93;10.73;;;22.10;99.90;;;;;;6184159;28;89210;-67
2022/11/06 02:45:27;;;;;;;11.77;10.52;;;22.10;99.90;;;;;;6184269;28;88378;-67
2022/11/06 02:48:33;;;;;;;11.93;10.70;;;22.10;99.90;;;;;;6183237;28;90490;-67
2022/11/06 02:51:40;;;;;;;11.60;10.40;;;22.10;99.90;;;;;;6183574;28;89192;-68
2022/11/06 02:54:46;;;;;;;12.13;10.82;;;22.10;99.90;;;;;;6183557;28;89412;-67
2022/11/06 02:57:54;;;;;;;12.45;10.68;;;22.10;99.90;;;;;;6182960;28;89224;-68
2022/11/06 03:01:07;;;;;;;13.48;10.70;;;22.10;99.90;;;;;;6184255;28;89130;-67
2022/11/06 03:04:16;;;;;;;13.13;10.60;;;22.10;99.90;;;;;;6183796;28;89187;-67
2022/11/06 03:07:23;;;;;;;11.48;10.20;;;22.10;99.90;;;;;;6184357;28;89082;-67
2022/11/06 03:10:30;;;;;;;12.45;10.73;;;22.10;99.90;;;;;;6184554;28;87166;-68
2022/11/06 03:13:44;;;;;;;11.38;10.10;;;22.00;99.90;;;;;;6172733;28;88146;-68
2022/11/06 03:16:53;;;;;;;11.80;10.13;;;22.00;99.90;;;;;;6184820;28;88203;-67
2022/11/06 03:20:03;;;;;;;11.68;10.35;;;22.00;99.90;;;;;;6182716;28;90671;-68
2022/11/06 03:23:13;;;;;;;11.20;10.00;;;22.00;99.90;;;;;;6178552;28;89775;-67
2022/11/06 03:26:19;;;;;;;13.23;10.32;;;22.00;99.90;;;;;;6182323;28;88086;-67
2022/11/06 03:29:30;;;;;;;11.48;10.27;;;22.00;99.90;;;;;;6180047;28;89218;-68
2022/11/06 03:32:37;;;;;;;11.57;9.95;;;22.00;99.90;;;;;;6183226;28;89238;-68
2022/11/06 03:35:43;;;;;;;10.90;9.80;;;22.00;99.90;;;;;;6182527;28;89649;-68
2022/11/06 03:38:49;;;;;;;10.73;9.63;;;22.00;99.90;;;;;;6180290;28;90122;-68
2022/11/06 03:41:57;;;;;;;10.70;9.60;;;22.00;99.90;;;;;;6184200;28;88540;-68
2022/11/06 03:45:04;;;;;;;11.75;10.27;;;22.00;99.90;;;;;;6183434;28;89388;-68
2022/11/06 03:48:11;;;;;;;11.43;9.93;;;22.00;99.90;;;;;;6182988;28;89261;-68
2022/11/06 03:51:19;;;;;;;11.40;10.20;;;22.00;99.90;;;;;;6182671;28;90194;-68
2022/11/06 03:54:24;;;;;;;10.88;9.77;;;22.00;99.90;;;;;;6183348;28;88122;-68
2022/11/06 03:57:31;;;;;;;10.98;9.88;;;22.00;99.90;;;;;;6183922;28;89211;-68
2022/11/06 04:00:39;;;;;;;12.50;10.00;;;22.00;99.90;;;;;;6183045;28;89306;-67
2022/11/06 04:03:46;;;;;;;10.98;9.90;;;22.00;99.90;;;;;;6181388;28;89297;-67
2022/11/06 04:06:56;;;;;;;11.73;10.05;;;22.00;99.90;;;;;;6183877;28;89064;-68
2022/11/06 04:16:47;;;;;;;9.85;8.85;;;21.90;99.90;;;;;;6173029;28;87426;-68
2022/11/06 04:19:55;;;;;;;11.32;9.98;;;21.90;99.90;;;;;;6171436;28;89551;-68
2022/11/06 04:23:05;;;;;;;10.43;9.25;;;21.90;99.90;;;;;;6181478;28;90036;-68
2022/11/06 04:29:48;;;;;;;10.63;9.52;;;21.90;99.90;;;;;;6183015;28;87294;-67
2022/11/06 04:33:02;;;;;;;10.70;9.60;;;21.90;99.90;;;;;;6182973;28;89208;-67
2022/11/06 04:36:11;;;;;;;10.30;9.30;;;21.90;99.90;;;;;;6181291;28;89364;-67
2022/11/06 04:39:18;;;;;;;10.48;9.48;;;22.00;99.90;;;;;;6181959;28;89286;-67
2022/11/06 04:42:26;;;;;;;10.32;9.20;;;22.00;99.90;;;;;;6185769;28;89163;-67
2022/11/06 04:45:32;;;;;;;10.45;9.35;;;22.00;99.90;;;;;;6189078;28;88313;-67
2022/11/06 04:48:38;;;;;;;9.93;8.93;;;22.00;99.90;;;;;;6181909;28;89548;-67
2022/11/06 04:51:43;;;;;;;9.93;8.93;;;22.00;99.90;;;;;;6181264;28;89501;-67
2022/11/06 04:54:46;;;;;;;9.57;8.57;;;22.00;99.90;;;;;;6181456;28;90110;-67
2022/11/06 04:57:48;;;;;;;9.65;8.65;;;22.00;99.90;;;;;;6181888;28;89066;-67
2022/11/06 05:00:51;;;;;;;10.80;9.52;;;22.00;99.90;;;;;;6181703;28;89198;-67
2022/11/06 05:03:55;;;;;;;10.68;9.30;;;22.10;99.90;;;;;;6181783;28;89071;-67
2022/11/06 05:06:57;;;;;;;9.63;8.63;;;22.10;99.90;;;;;;6180621;28;89078;-67
2022/11/06 05:09:59;;;;;;;10.27;8.60;;;22.10;99.90;;;;;;6180638;28;89112;-67
2022/11/06 05:13:01;;;;;;;9.05;8.15;;;22.00;99.90;;;;;;6179453;28;89639;-67
2022/11/06 05:16:03;;;;;;;9.77;8.77;;;22.10;99.90;;;;;;6181991;28;88564;-67
2022/11/06 05:19:07;;;;;;;9.68;8.68;;;22.10;99.90;;;;;;6181088;28;89123;-68
2022/11/06 05:25:32;;;;;;;9.30;8.38;;;22.10;99.90;;;;;;6180958;28;88168;-67
2022/11/06 05:28:34;;;;;;;9.68;8.57;;;22.10;99.90;;;;;;6181575;28;89186;-68
2022/11/06 05:31:36;;;;;;;8.82;7.93;;;22.10;99.90;;;;;;6181439;28;89351;-67
2022/11/06 05:34:41;;;;;;;9.18;8.20;;;22.10;99.90;;;;;;6179746;28;87695;-67
2022/11/06 05:37:43;;;;;;;9.23;8.30;;;22.10;99.90;;;;;;6182234;28;88870;-67
2022/11/06 05:40:45;;;;;;;9.32;8.40;;;22.10;99.90;;;;;;6180871;28;88087;-68
2022/11/06 05:43:47;;;;;;;9.30;8.40;;;22.10;99.90;;;;;;6181315;28;89490;-67
2022/11/06 05:46:49;;;;;;;8.93;8.10;;;22.10;99.90;;;;;;6181311;28;87675;-67
2022/11/06 05:49:53;;;;;;;9.32;8.43;;;22.20;99.90;;;;;;6181014;28;89371;-68
2022/11/06 05:52:55;;;;;;;10.20;8.38;;;22.20;99.90;;;;;;6180534;28;89683;-67
2022/11/06 05:55:57;;;;;;;9.43;8.43;;;22.20;99.90;;;;;;6180557;28;88953;-67
2022/11/06 05:58:59;;;;;;;9.70;8.68;;;22.20;99.90;;;;;;6180186;28;89306;-67
2022/11/06 06:02:01;;;;;;;9.00;8.10;;;22.10;99.90;;;;;;6181450;28;89198;-67
2022/11/06 06:05:05;;;;;;;9.23;8.32;;;22.20;99.90;;;;;;6181027;28;88154;-67
2022/11/06 06:08:07;;;;;;;9.10;8.20;;;22.20;99.90;;;;;;6180784;28;89144;-67
2022/11/06 06:11:09;;;;;;;8.68;7.88;;;22.20;99.90;;;;;;6181307;28;89145;-67
2022/11/06 06:14:11;;;;;;;9.20;8.27;;;22.20;99.90;;;;;;6180479;28;89360;-67
2022/11/06 06:17:13;;;;;;;9.20;8.30;;;22.20;99.90;;;;;;6180217;28;88858;-67
2022/11/06 06:20:17;;;;;;;8.93;8.02;;;22.20;99.90;;;;;;6180475;28;89173;-67
2022/11/06 06:23:19;;;;;;;9.35;8.38;;;22.20;99.90;;;;;;6181064;28;89672;-67
2022/11/06 06:26:21;;;;;;;9.60;8.57;;;22.20;99.90;;;;;;6180844;28;89368;-67
2022/11/06 06:29:23;;;;;;;8.88;7.97;;;22.20;99.90;;;;;;6180967;28;89163;-67
2022/11/06 06:32:25;;;;;;;9.63;8.63;;;22.20;99.90;;;;;;6180853;28;89186;-67
2022/11/06 06:35:28;;;;;;;8.98;8.07;;;22.20;99.90;;;;;;6181390;28;89322;-67
2022/11/06 06:38:30;;;;;;;9.20;8.30;;;22.20;99.90;;;;;;6171736;28;89117;-67
2022/11/06 06:41:32;;;;;;;9.00;8.10;;;22.20;99.90;;;;;;6181288;28;89549;-67
2022/11/06 06:44:34;;;;;;;9.00;8.10;;;22.20;99.90;;;;;;6177455;28;91248;-67
2022/11/06 06:47:36;;;;;;;9.32;8.25;;;22.20;99.90;;;;;;6181673;28;88618;-67
2022/11/06 06:50:40;;;;;;;8.48;7.68;;;22.20;99.90;;;;;;6181445;28;89377;-67
2022/11/06 06:53:42;;;;;;;8.68;7.78;;;22.30;99.90;;;;;;6179582;28;89470;-67
2022/11/06 06:56:44;;;;;;;9.05;7.82;;;22.20;99.90;;;;;;6179609;28;89023;-67
2022/11/06 06:59:46;;;;;;;9.50;8.18;;;22.30;99.90;;;;;;6167530;28;88052;-67
2022/11/06 07:02:48;;;;;;;8.18;7.38;;;22.30;99.90;;;;;;6180011;28;89651;-67
2022/11/06 07:05:52;;;;;;;8.63;7.72;;;22.30;99.90;;;;;;6180284;28;89372;-67
2022/11/06 07:08:55;;;;;;;9.18;8.18;;;22.30;99.90;;;;;;6168285;28;89397;-67
2022/11/06 07:11:57;;;;;;;9.25;8.25;;;22.30;99.90;;;;;;6179469;28;89201;-67
2022/11/06 07:14:59;;;;;;;8.38;7.47;;;22.30;99.90;;;;;;6181942;28;89253;-67
2022/11/06 07:18:02;;;;;;;8.52;7.70;;;22.30;99.90;;;;;;6183767;28;88428;-67
2022/11/06 07:21:07;;;;;;;8.57;7.60;;;22.30;99.90;;;;;;6183155;28;89146;-67
2022/11/06 07:24:09;;;;;;;9.25;7.97;;;22.30;99.90;;;;;;6183821;28;89146;-67
2022/11/06 07:27:11;;;;;;;9.15;7.80;;;22.30;99.90;;;;;;6182278;28;90160;-67
2022/11/06 07:30:13;;;;;;;8.77;7.88;;;22.30;99.90;;;;;;6183094;28;89201;-67
2022/11/06 07:33:16;;;;;;;8.50;7.63;;;22.30;99.90;;;;;;6181992;28;89295;-67
2022/11/06 07:36:19;;;;;;;8.60;7.68;;;22.30;99.90;;;;;;6182759;28;88082;-67
2022/11/06 07:39:21;;;;;;;7.97;7.18;;;22.40;99.90;;;;;;6183275;28;89233;-67
2022/11/06 07:42:23;;;;;;;8.00;7.20;;;22.40;99.90;;;;;;6183181;28;89113;-68
2022/11/06 07:45:25;;;;;;;8.65;7.75;;;22.30;99.90;;;;;;6182749;28;89138;-67
2022/11/06 07:48:28;;;;;;;8.18;7.38;;;22.40;99.90;;;;;;6186151;28;88891;-67
2022/11/06 07:51:32;;;;;;;8.05;7.25;;;22.30;99.90;;;;;;6182145;28;89283;-67
2022/11/06 07:54:34;;;;;;;7.40;6.70;;;22.40;98.70;;;;;;6182684;28;89241;-66
2022/11/06 07:57:37;;;;;;;7.38;6.68;;;22.30;97.50;;;;;;6182224;28;90304;-67
2022/11/06 08:00:39;;;;;;;7.25;6.55;;;22.40;97.40;;;;;;6182158;28;89437;-67
2022/11/06 08:03:41;;;;;;;7.28;6.53;;;22.40;97.40;;;;;;6183181;28;89102;-67
2022/11/06 08:06:44;;;;;;;7.20;6.50;;;22.40;97.30;;;;;;6183362;28;89024;-67
2022/11/06 08:09:46;;;;;;;8.52;7.00;;;22.40;97.30;;;;;;6181463;28;89245;-66
2022/11/06 08:12:48;;;;;;;7.25;6.18;;;22.40;97.30;;;;;;6181627;28;89294;-67
2022/11/06 08:15:50;;;;;;;7.00;6.13;;;22.40;97.30;;;;;;6182165;28;89126;-66
2022/11/06 08:18:52;;;;;;;6.78;6.07;;;22.40;97.30;;;;;;6179967;28;88519;-67
2022/11/06 08:21:56;;;;;;;7.13;6.43;;;22.40;97.30;;;;;;6179850;28;89648;-67
2022/11/06 08:24:58;;;;;;;7.22;6.53;;;22.40;97.30;;;;;;6181772;28;89326;-67
2022/11/06 08:28:01;;;;;;;7.35;6.40;;;22.40;97.40;;;;;;6182102;28;90135;-66
2022/11/06 08:31:05;;;;;;;7.32;6.50;;;22.40;97.40;;;;;;6181180;28;88556;-67
2022/11/06 08:34:07;;;;;;;6.97;6.28;;;22.40;97.40;;;;;;6182498;28;89083;-67
2022/11/06 08:37:11;;;;;;;6.90;6.20;;;22.40;97.50;;;;;;6182395;28;89336;-67
2022/11/06 08:40:13;;;;;;;6.80;6.20;;;22.40;97.50;;;;;;6182065;28;89473;-67
2022/11/06 08:43:15;;;;;;;6.57;5.90;;;22.40;97.60;;;;;;6182091;28;89161;-67
2022/11/06 08:46:17;;;;;;;6.82;6.13;;;22.40;97.60;;;;;;6182082;28;89077;-67
2022/11/06 08:49:19;;;;;;;6.70;6.03;;;22.40;97.60;;;;;;6182567;28;88518;-67
2022/11/06 08:52:23;;;;;;;6.55;5.85;;;22.40;97.60;;;;;;6182314;28;89272;-67
2022/11/06 08:55:25;;;;;;;6.72;6.03;;;22.40;97.70;;;;;;6181867;28;90203;-67
2022/11/06 08:58:27;;;;;;;6.32;5.72;;;22.40;97.70;;;;;;6180882;28;90102;-67
2022/11/06 09:01:29;;;;;;;6.82;5.90;;;22.40;98.20;;;;;;6180375;28;89210;-67
2022/11/06 09:04:31;;;;;;;5.88;5.28;;;22.40;97.80;;;;;;6181415;28;88074;-68
2022/11/06 09:07:34;;;;;;;6.15;5.55;;;22.40;97.90;;;;;;6182365;28;89211;-67
2022/11/06 09:10:38;;;;;;;6.47;5.88;;;22.40;98.00;;;;;;6181250;28;89194;-67
2022/11/06 09:13:40;;;;;;;7.57;6.45;;;22.40;98.00;;;;;;6181143;28;89351;-67
2022/11/06 09:16:42;;;;;;;6.57;5.70;;;22.40;98.10;;;;;;6181736;28;89271;-67
2022/11/06 09:19:44;;;;;;;6.85;5.90;;;22.40;98.20;;;;;;6178983;28;88529;-67
2022/11/06 09:22:48;;;;;;;6.85;5.80;;;22.40;98.20;;;;;;6182486;28;89366;-67
2022/11/06 09:25:50;;;;;;;6.15;5.55;;;22.30;98.20;;;;;;6181697;28;89203;-67
2022/11/06 09:28:52;;;;;;;6.97;5.88;;;22.40;98.30;;;;;;6179817;28;90086;-66
2022/11/06 09:31:54;;;;;;;6.18;5.50;;;22.30;98.20;;;;;;6182047;28;89221;-67
2022/11/06 09:34:56;;;;;;;7.75;5.50;;;22.30;98.40;;;;;;6180666;28;89137;-67
2022/11/06 09:38:03;;;;;;;6.30;5.70;;;22.40;98.40;;;;;;6177109;28;89180;-67
2022/11/06 09:41:05;;;;;;;6.47;5.78;;;22.30;98.40;;;;;;6179850;28;89239;-67
2022/11/06 09:44:22;;;;;;;6.05;5.45;;;22.40;98.90;;;;;;6180969;28;89152;-67
2022/11/06 09:47:30;;;;;;;6.20;5.22;;;22.30;98.50;;;;;;6179309;28;89108;-67
2022/11/06 09:50:36;;;;;;;5.85;4.90;;;22.30;98.60;;;;;;6181710;28;88524;-67
2022/11/06 09:53:47;;;;;;;5.90;5.30;;;22.30;98.60;;;;;;6180165;28;89375;-67
2022/11/06 09:56:51;;;;;;;5.80;5.20;;;22.30;98.70;;;;;;6179847;28;89292;-66
2022/11/06 09:59:53;;;;;;;6.25;5.65;;;22.30;98.90;;;;;;6180415;28;90070;-66
2022/11/06 10:02:59;;;;;;;6.15;5.55;;;22.40;99.10;;;;;;6180712;28;89206;-65
2022/11/06 10:06:01;;;;;;;53.60;29.42;;;22.40;99.70;;;;;;6180484;28;89486;-67
2022/11/06 10:09:07;;;;;;;38.47;23.00;;;22.40;99.90;;;;;;6180545;28;89513;-67
2022/11/06 10:12:17;;;;;;;34.38;21.50;;;22.40;99.90;;;;;;6179920;28;87974;-67
2022/11/06 10:15:24;;;;;;;15.57;10.00;;;22.30;99.90;;;;;;6179399;28;89660;-67
2022/11/06 10:18:37;;;;;;;14.63;8.52;;;22.40;99.90;;;;;;6180556;28;89280;-67
2022/11/06 10:21:47;;;;;;;12.80;8.68;;;22.40;99.90;;;;;;6180683;28;88627;-68
2022/11/06 10:25:01;;;;;;;8.98;7.70;;;22.40;99.90;;;;;;6181159;28;89081;-66
2022/11/06 10:28:14;;;;;;;12.30;8.45;;;22.40;99.90;;;;;;6177422;28;89185;-66
2022/11/06 10:31:25;;;;;;;9.05;7.70;;;22.50;99.90;;;;;;6177944;28;90599;-67
2022/11/06 10:34:31;;;;;;;11.10;7.60;;;22.50;99.90;;;;;;6177724;28;89300;-68
2022/11/06 10:37:39;;;;;;;10.13;7.68;;;22.50;99.90;;;;;;6178228;28;89607;-66
2022/11/06 10:40:47;;;;;;;10.70;7.78;;;22.50;99.90;;;;;;6177330;28;89263;-67
2022/11/06 10:43:53;;;;;;;9.05;7.30;;;22.40;99.90;;;;;;6178095;28;89188;-67
2022/11/06 10:47:01;;;;;;;11.77;7.85;;;22.50;99.90;;;;;;6178119;28;88095;-67
2022/11/06 10:50:10;;;;;;;9.73;7.18;;;22.50;99.90;;;;;;6179697;28;88007;-67
2022/11/06 10:53:24;;;;;;;10.27;7.47;;;22.50;99.90;;;;;;6183272;28;88337;-67
2022/11/06 10:56:42;;;;;;;10.65;7.63;;;22.50;99.90;;;;;;6181100;28;89246;-66
2022/11/06 10:59:45;;;;;;;13.45;7.60;;;22.50;99.90;;;;;;6181314;28;89358;-67
2022/11/06 11:02:51;;;;;;;12.00;7.50;;;22.50;99.90;;;;;;6182568;28;90067;-67
2022/11/06 11:05:54;;;;;;;10.55;7.55;;;22.50;99.90;;;;;;6181938;28;91675;-67
2022/11/06 11:08:57;;;;;;;12.50;7.63;;;22.50;99.90;;;;;;6179852;28;89071;-67
2022/11/06 11:12:00;;;;;;;16.52;7.65;;;22.50;99.90;;;;;;6183680;28;89168;-67
2022/11/06 11:15:12;;;;;;;13.82;8.00;;;22.50;99.90;;;;;;6183906;28;88188;-66
2022/11/06 11:18:22;;;;;;;10.75;6.82;;;22.50;99.90;;;;;;6173414;28;89191;-67
2022/11/06 11:21:26;;;;;;;17.67;8.52;;;22.50;99.90;;;;;;6180395;28;89232;-67
2022/11/06 11:24:29;;;;;;;12.63;7.00;;;22.50;99.90;;;;;;6184392;28;87344;-67
2022/11/06 11:27:37;;;;;;;12.82;7.38;;;22.50;99.90;;;;;;6180430;28;88265;-68
2022/11/06 11:30:40;;;;;;;13.00;7.47;;;22.50;99.90;;;;;;6184734;28;89612;-67
2022/11/06 11:33:49;;;;;;;10.90;7.15;;;22.50;99.90;;;;;;6172457;28;88016;-68
2022/11/06 11:36:55;;;;;;;13.73;7.32;;;22.50;99.90;;;;;;6183672;28;93114;-67
2022/11/06 11:40:21;;;;;;;13.65;7.20;;;22.50;99.90;;;;;;6183984;28;88298;-67
2022/11/06 11:43:27;;;;;;;14.75;7.28;;;22.50;99.90;;;;;;6171136;28;88369;-68
2022/11/06 11:46:29;;;;;;;13.95;6.85;;;22.50;99.90;;;;;;6183256;28;89140;-67
2022/11/06 11:49:33;;;;;;;17.10;8.15;;;22.50;99.90;;;;;;6183673;28;89396;-68
2022/11/06 11:52:39;;;;;;;21.15;9.25;;;22.50;99.90;;;;;;6181572;28;89089;-68
2022/11/06 11:55:45;;;;;;;15.90;7.63;;;22.50;99.90;;;;;;6184997;28;88494;-67
2022/11/06 11:58:53;;;;;;;15.88;8.02;;;22.50;99.90;;;;;;6171910;28;88297;-67
2022/11/06 12:01:57;;;;;;;17.75;8.10;;;22.60;99.90;;;;;;6182913;28;88785;-68
2022/11/06 12:05:03;;;;;;;17.75;7.65;;;22.50;99.90;;;;;;6182911;28;89059;-68
2022/11/06 12:08:07;;;;;;;16.88;7.60;;;22.50;99.90;;;;;;6175211;28;89108;-68
2022/11/06 12:11:15;;;;;;;15.55;7.30;;;22.50;99.90;;;;;;6179974;28;89254;-68
2022/11/06 12:14:26;;;;;;;16.52;7.63;;;22.60;99.90;;;;;;6180695;28;89147;-67
2022/11/06 12:17:29;;;;;;;15.75;7.25;;;22.50;99.90;;;;;;6182992;28;90039;-68
2022/11/06 12:20:40;;;;;;;12.88;7.18;;;22.50;99.90;;;;;;6183222;28;89379;-68
2022/11/06 12:23:46;;;;;;;13.45;7.45;;;22.60;99.90;;;;;;6182500;28;88091;-68
2022/11/06 12:26:52;;;;;;;14.90;7.22;;;22.60;99.90;;;;;;6182470;28;88760;-68
2022/11/06 12:30:04;;;;;;;13.60;6.93;;;22.50;99.90;;;;;;6182544;28;89174;-68
2022/11/06 12:33:16;;;;;;;13.48;7.25;;;22.50;99.90;;;;;;6181795;28;88046;-67
2022/11/06 12:36:20;;;;;;;14.23;7.40;;;22.50;99.90;;;;;;6169910;28;91235;-67
2022/11/06 12:39:28;;;;;;;12.13;6.65;;;22.60;99.90;;;;;;6178114;28;90000;-67
2022/11/06 12:42:34;;;;;;;14.23;6.47;;;22.60;99.90;;;;;;6179910;28;89080;-67
2022/11/06 12:45:48;;;;;;;12.45;6.80;;;22.70;99.90;;;;;;6178333;28;89221;-68
2022/11/06 12:49:02;;;;;;;12.65;7.18;;;22.70;99.90;;;;;;6180528;28;89200;-67
2022/11/06 12:52:15;;;;;;;11.15;6.78;;;22.70;99.90;;;;;;6181785;28;89231;-67
2022/11/06 12:55:24;;;;;;;13.02;6.80;;;22.80;99.90;;;;;;6182268;28;89123;-68
2022/11/06 12:59:06;;;;;;;12.05;6.45;;;22.70;99.90;;;;;;6182755;28;87309;-67
2022/11/06 13:02:34;;;;;;;9.68;6.40;;;22.70;99.90;;;;;;6162049;28;89354;-67
2022/11/06 13:05:47;;;;;;;13.63;6.28;;;22.70;99.90;;;;;;6181628;28;88077;-66
2022/11/06 13:08:59;;;;;;;15.02;6.72;;;22.70;99.90;;;;;;6181232;28;89185;-67
2022/11/06 13:12:06;;;;;;;13.30;6.00;;;22.60;99.90;;;;;;6171727;28;89196;-68
2022/11/06 13:15:22;;;;;;;13.68;6.40;;;22.60;99.90;;;;;;6179008;28;88781;-68
2022/11/06 13:18:30;;;;;;;12.15;6.38;;;22.60;99.90;;;;;;6174416;28;89656;-68
2022/11/06 13:21:51;;;;;;;11.50;6.22;;;22.50;99.90;;;;;;6182405;28;89681;-68
2022/11/06 13:24:59;;;;;;;11.27;6.20;;;22.50;99.90;;;;;;6173297;28;89223;-67
2022/11/06 13:28:20;;;;;;;11.43;6.10;;;22.50;99.90;;;;;;6182031;28;89087;-68
2022/11/06 13:31:29;;;;;;;10.63;6.15;;;22.50;99.90;;;;;;6176331;28;87563;-67
2022/11/06 13:34:36;;;;;;;11.60;5.57;;;22.40;99.90;;;;;;6181513;28;89033;-68
2022/11/06 13:37:41;;;;;;;12.00;5.85;;;22.50;99.90;;;;;;6181570;28;88008;-67
2022/11/06 13:40:48;;;;;;;9.70;5.30;;;22.50;99.90;;;;;;6180124;28;90183;-68
2022/11/06 13:43:56;;;;;;;9.75;5.50;;;22.50;99.90;;;;;;6181881;28;89319;-67
2022/11/06 13:47:05;;;;;;;9.80;5.63;;;22.50;99.90;;;;;;6181889;28;89357;-68
2022/11/06 13:50:14;;;;;;;8.43;5.28;;;22.50;99.90;;;;;;6182116;28;89230;-67
2022/11/06 13:53:23;;;;;;;8.73;5.43;;;22.50;99.90;;;;;;6179151;28;89154;-68
2022/11/06 13:56:55;;;;;;;7.90;5.00;;;22.50;99.90;;;;;;6181856;28;87234;-68
2022/11/06 14:00:08;;;;;;;7.30;4.90;;;22.40;99.90;;;;;;6180903;28;89277;-67
2022/11/06 14:03:36;;;;;;;9.30;5.40;;;22.50;99.90;;;;;;6181457;28;88403;-68
2022/11/06 14:06:42;;;;;;;7.40;5.20;;;22.50;99.90;;;;;;6180923;28;89399;-68
2022/11/06 14:09:46;;;;;;;8.80;5.30;;;22.50;99.90;;;;;;6180850;28;90990;-67
2022/11/06 14:12:49;;;;;;;7.90;4.88;;;22.50;99.90;;;;;;6180576;28;90202;-68
2022/11/06 14:16:00;;;;;;;7.57;4.93;;;22.50;99.90;;;;;;6180759;28;88859;-67
2022/11/06 14:19:07;;;;;;;8.60;5.45;;;22.40;99.90;;;;;;6180456;28;89241;-68
2022/11/06 14:22:26;;;;;;;9.23;5.28;;;22.50;99.90;;;;;;6178880;28;89277;-68
2022/11/06 14:25:59;;;;;;;7.20;4.70;;;22.50;99.90;;;;;;6177773;28;89658;-67
2022/11/06 14:29:36;;;;;;;8.25;4.95;;;22.40;99.90;;;;;;6179661;28;88248;-67
2022/11/06 14:32:47;;;;;;;8.23;5.03;;;22.40;99.90;;;;;;6158767;28;89527;-67
2022/11/06 14:35:51;;;;;;;8.50;5.40;;;22.40;99.90;;;;;;6176893;28;88411;-68
2022/11/06 14:38:56;;;;;;;7.63;5.10;;;22.40;99.90;;;;;;6181024;28;89071;-66
2022/11/06 14:41:59;;;;;;;11.90;5.22;;;22.40;99.90;;;;;;6180076;28;89124;-66
2022/11/06 14:45:08;;;;;;;6.95;4.78;;;22.40;99.90;;;;;;6179052;28;90187;-67
2022/11/06 14:48:12;;;;;;;8.93;5.10;;;22.60;99.90;;;;;;6180013;28;89076;-67
2022/11/06 14:51:15;;;;;;;8.13;5.00;;;22.70;99.90;;;;;;6177254;28;89102;-68
2022/11/06 14:54:23;;;;;;;10.43;5.10;;;22.80;99.90;;;;;;6178141;28;89373;-68
2022/11/06 14:57:41;;;;;;;10.73;5.03;;;22.80;99.90;;;;;;6176154;28;88187;-67
2022/11/06 15:00:49;;;;;;;8.68;5.28;;;22.80;99.90;;;;;;6176186;28;89637;-68
2022/11/06 15:03:55;;;;;;;11.95;5.57;;;22.80;99.90;;;;;;6176855;28;88956;-68
2022/11/06 15:07:07;;;;;;;11.05;5.22;;;22.70;99.90;;;;;;6175064;28;87272;-66
2022/11/06 15:10:50;;;;;;;9.25;5.50;;;22.80;99.90;;;;;;6179194;28;91561;-69
2022/11/06 15:13:53;;;;;;;7.05;5.32;;;22.90;99.90;;;;;;6178111;28;89348;-68
2022/11/06 15:17:02;;;;;;;10.25;5.88;;;23.00;99.90;;;;;;6176893;28;90172;-67
2022/11/06 15:20:25;;;;;;;10.60;5.82;;;23.10;99.90;;;;;;6174636;28;89421;-67
2022/11/06 15:23:32;;;;;;;15.63;6.20;;;23.10;99.90;;;;;;6174497;28;88266;-68
2022/11/06 15:26:40;;;;;;;8.38;5.20;;;23.10;99.90;;;;;;6177599;28;89114;-69
2022/11/06 15:29:46;;;;;;;7.55;5.05;;;23.40;99.90;;;;;;6177575;28;87950;-68
2022/11/06 15:32:52;;;;;;;9.20;5.60;;;23.80;99.90;;;;;;6178489;28;89433;-69
2022/11/06 15:35:58;;;;;;;8.57;5.30;;;24.10;99.90;;;;;;6175738;28;88079;-69
2022/11/06 15:39:01;;;;;;;8.63;5.55;;;24.20;99.40;;;;;;6183074;28;88564;-68
2022/11/06 15:42:08;;;;;;;8.73;5.15;;;24.20;99.00;;;;;;6183571;28;88365;-68
2022/11/06 15:45:22;;;;;;;8.95;4.93;;;24.10;99.00;;;;;;6180334;28;88683;-68
2022/11/06 15:48:24;;;;;;;6.97;4.95;;;24.00;99.20;;;;;;6181822;28;90207;-68
2022/11/06 15:51:28;;;;;;;10.63;4.97;;;23.90;99.50;;;;;;6178827;28;89304;-69
2022/11/06 15:54:34;;;;;;;7.18;5.00;;;23.90;99.40;;;;;;6182703;28;87160;-68
2022/11/06 15:57:38;;;;;;;7.35;4.93;;;23.90;99.30;;;;;;6179686;28;89189;-69
2022/11/06 16:00:41;;;;;;;9.35;4.90;;;23.80;99.20;;;;;;6181369;28;89536;-68
2022/11/06 16:03:48;;;;;;;10.02;4.57;;;23.80;99.20;;;;;;6183427;28;88845;-68
2022/11/06 16:06:52;;;;;;;6.07;4.72;;;23.80;99.20;;;;;;6175362;28;89267;-69
2022/11/06 16:09:55;;;;;;;7.20;5.00;;;23.70;99.90;;;;;;6182973;28;88526;-68
2022/11/06 16:13:01;;;;;;;9.88;4.53;;;23.70;99.90;;;;;;6182304;28;88337;-68
2022/11/06 16:16:05;;;;;;;6.65;4.60;;;23.60;99.90;;;;;;6181748;28;89144;-67
2022/11/06 16:19:21;;;;;;;6.20;4.85;;;23.60;99.90;;;;;;6181643;28;89615;-68